Aviation Digital Data Service (ADDS)

Output produced by METARs form (0236 UTC 22 July 2017)
found at http://www.aviationweather.gov/adds/metars/
 
UGKO 220230Z 09001KT 9999 SCT028 OVC042 23/22 Q1011 R07/09//70 NOSIG
TAF UGKO 212300Z 2200/2224 VRB02KT 9999 SCT023 BKN050 TX30/2211Z TN21/2201Z 
     TEMPO 2200/2205 3000 BR 
     TEMPO 2210/2218 26014KT
       
UGSB 220230Z 14003KT 3800 -RA BR SCT005 OVC014 22/22 Q1013 R13/29//55 NOSIG
TAF UGSB 212300Z 2200/2224 22008KT 7000 -RA FEW010 BKN020 TX25/2212Z TN21/2201Z 
     TEMPO 2200/2212 VRB03KT 3000 RA SCT005 BKN015 
     TEMPO 2212/2224 3000 SHRA SCT007 BKN017CB
       
UGTB 220230Z 32007KT CAVOK 21/17 Q1016 R31L/CLRD70 NOSIG
TAF UGTB 212300Z 2200/2224 32012KT CAVOK TX36/2212Z TN22/2202Z 
     BECMG 2203/2205 VRB02KT 
     TEMPO 2206/2215 14012KT 
     TEMPO 2216/2224 05009KT